createdAt,value
2023-04-29T00:01:48.886Z,6.85
2023-04-29T00:04:17.223Z,6.78
2023-04-29T00:06:44.806Z,4.43
2023-04-29T00:09:12.211Z,5.37
2023-04-29T00:11:39.944Z,3.83
2023-04-29T00:14:07.300Z,4.90
2023-04-29T00:16:34.718Z,5.97
2023-04-29T00:19:02.656Z,4.78
2023-04-29T00:21:30.311Z,4.53
2023-04-29T00:23:58.060Z,4.87
2023-04-29T00:26:25.939Z,3.85
2023-04-29T00:28:53.679Z,5.12
2023-04-29T00:31:21.943Z,4.55
2023-04-29T00:33:49.702Z,4.95
2023-04-29T00:36:17.079Z,6.62
2023-04-29T00:38:44.702Z,4.87
2023-04-29T00:41:12.543Z,4.80
2023-04-29T00:43:39.958Z,4.68
2023-04-29T00:46:07.369Z,7.15
2023-04-29T00:48:35.084Z,6.90
2023-04-29T00:51:04.045Z,5.28
2023-04-29T00:53:31.779Z,4.72
2023-04-29T00:56:00.830Z,4.93
2023-04-29T00:58:33.565Z,5.30
2023-04-29T01:01:01.857Z,4.95
2023-04-29T01:03:30.750Z,5.85
2023-04-29T01:06:25.085Z,5.05
2023-04-29T01:09:01.882Z,5.97
2023-04-29T01:11:36.259Z,4.28
2023-04-29T01:14:04.828Z,4.53
2023-04-29T01:16:49.301Z,3.97
2023-04-29T01:19:34.211Z,4.60
2023-04-29T01:22:01.658Z,4.55
2023-04-29T01:24:29.983Z,3.50
2023-04-29T01:27:08.529Z,5.80
2023-04-29T01:29:52.057Z,3.58
2023-04-29T01:32:31.144Z,4.60
2023-04-29T01:35:06.014Z,4.40
2023-04-29T01:37:52.493Z,4.85
2023-04-29T01:40:26.573Z,4.37
2023-04-29T01:42:55.060Z,3.67
2023-04-29T01:45:23.350Z,4.47
2023-04-29T01:47:53.712Z,4.00
2023-04-29T01:50:21.709Z,5.05
2023-04-29T01:52:49.488Z,3.83
2023-04-29T01:55:17.035Z,3.17
2023-04-29T01:57:45.212Z,3.60
2023-04-29T02:00:13.756Z,3.20
2023-04-29T02:02:42.338Z,3.70
2023-04-29T02:05:10.132Z,4.12
2023-04-29T02:07:40.244Z,4.50
2023-04-29T02:10:08.260Z,4.00
2023-04-29T02:12:36.586Z,3.00
2023-04-29T02:15:04.921Z,3.42
2023-04-29T02:17:34.121Z,4.93
2023-04-29T02:20:01.558Z,3.85
2023-04-29T02:22:29.287Z,3.55
2023-04-29T02:24:58.440Z,4.45
2023-04-29T02:27:26.707Z,4.18
2023-04-29T02:29:54.904Z,5.07
2023-04-29T02:32:22.731Z,3.55
2023-04-29T02:34:50.555Z,2.83
2023-04-29T02:37:17.968Z,3.85
2023-04-29T02:39:47.120Z,3.72
2023-04-29T02:42:14.800Z,3.75
2023-04-29T02:44:42.638Z,4.50
2023-04-29T02:47:10.079Z,3.60
2023-04-29T02:49:38.563Z,4.30
2023-04-29T02:52:05.936Z,4.00
2023-04-29T02:54:33.575Z,3.90
2023-04-29T02:57:01.320Z,3.60
2023-04-29T02:59:28.708Z,3.95
2023-04-29T03:01:56.129Z,4.10
2023-04-29T03:04:24.028Z,4.07
2023-04-29T03:06:51.534Z,5.40
2023-04-29T03:09:18.984Z,2.53
2023-04-29T03:11:46.809Z,4.45
2023-04-29T03:14:14.417Z,4.87
2023-04-29T03:16:42.759Z,3.72
2023-04-29T03:19:10.621Z,3.47
2023-04-29T03:21:38.002Z,5.47
2023-04-29T03:24:05.891Z,5.15
2023-04-29T03:26:33.863Z,5.97
2023-04-29T03:29:01.479Z,4.28
2023-04-29T03:31:29.013Z,5.68
2023-04-29T03:33:56.683Z,5.75
2023-04-29T03:36:24.235Z,5.12
2023-04-29T03:38:51.720Z,4.65
2023-04-29T03:41:19.721Z,6.03
2023-04-29T03:43:47.937Z,5.70
2023-04-29T03:46:15.465Z,5.40
2023-04-29T03:48:43.271Z,5.05
2023-04-29T03:51:10.898Z,4.18
2023-04-29T03:53:38.609Z,4.78
2023-04-29T03:56:07.046Z,5.00
2023-04-29T03:58:34.505Z,3.20
2023-04-29T04:01:02.184Z,5.37
2023-04-29T04:03:32.695Z,5.53
2023-04-29T04:06:00.595Z,5.25
2023-04-29T04:08:28.394Z,5.32
2023-04-29T04:11:02.793Z,4.37
2023-04-29T04:13:30.497Z,3.80
2023-04-29T04:15:58.886Z,4.72
2023-04-29T04:18:26.751Z,4.10
2023-04-29T04:20:54.236Z,3.70
2023-04-29T04:23:21.900Z,5.43
2023-04-29T04:25:49.554Z,5.07
2023-04-29T04:28:17.432Z,4.43
2023-04-29T04:30:46.561Z,6.18
2023-04-29T04:33:14.002Z,4.57
2023-04-29T04:35:43.303Z,4.45
2023-04-29T04:38:15.232Z,5.10
2023-04-29T04:40:43.086Z,5.75
2023-04-29T04:43:11.584Z,5.70
2023-04-29T04:45:40.499Z,4.95
2023-04-29T04:48:08.001Z,4.37
2023-04-29T04:50:36.620Z,5.87
2023-04-29T04:53:04.264Z,4.65
2023-04-29T04:55:33.542Z,5.93
2023-04-29T04:58:01.694Z,6.37
2023-04-29T05:00:29.366Z,4.07
2023-04-29T05:02:56.880Z,4.03
2023-04-29T05:05:24.788Z,4.70
2023-04-29T05:07:52.239Z,5.30
2023-04-29T05:10:20.994Z,3.97
2023-04-29T05:12:48.969Z,3.85
2023-04-29T05:15:17.036Z,3.53
2023-04-29T05:17:44.731Z,3.55
2023-04-29T05:20:12.688Z,2.75
2023-04-29T05:22:40.134Z,2.55
2023-04-29T05:25:08.399Z,3.90
2023-04-29T05:27:36.236Z,4.50
2023-04-29T05:30:04.787Z,4.55
2023-04-29T05:32:33.828Z,5.20
2023-04-29T05:35:01.672Z,4.20
2023-04-29T05:37:31.260Z,4.85
2023-04-29T05:40:01.754Z,4.22
2023-04-29T05:42:30.317Z,3.67
2023-04-29T05:44:57.791Z,3.33
2023-04-29T05:47:25.267Z,4.80
2023-04-29T05:49:53.204Z,4.70
2023-04-29T05:52:21.008Z,3.33
2023-04-29T05:54:49.312Z,3.75
2023-04-29T05:57:17.588Z,3.50
2023-04-29T05:59:45.112Z,4.05
2023-04-29T06:02:12.744Z,3.55
2023-04-29T06:04:43.485Z,3.60
2023-04-29T06:07:12.578Z,4.93
2023-04-29T06:09:40.421Z,3.80
2023-04-29T06:12:07.862Z,3.42
2023-04-29T06:14:35.281Z,3.15
2023-04-29T06:17:04.037Z,2.83
2023-04-29T06:19:33.661Z,3.80
2023-04-29T06:22:01.181Z,3.15
2023-04-29T06:24:28.946Z,2.97
2023-04-29T06:26:57.605Z,3.55
2023-04-29T06:29:26.367Z,3.60
2023-04-29T06:31:54.351Z,3.58
2023-04-29T06:34:22.200Z,3.45
2023-04-29T06:36:50.751Z,3.20
2023-04-29T06:39:18.600Z,3.35
2023-04-29T06:41:46.723Z,4.40
2023-04-29T06:44:14.176Z,3.28
2023-04-29T06:46:41.874Z,2.97
2023-04-29T06:49:10.156Z,3.05
2023-04-29T06:51:38.071Z,2.75
2023-04-29T06:54:05.870Z,3.50
2023-04-29T06:56:33.293Z,2.90
2023-04-29T06:59:00.721Z,3.08
2023-04-29T07:01:28.685Z,3.00
2023-04-29T07:03:56.952Z,3.90
2023-04-29T07:06:24.613Z,2.95
2023-04-29T07:08:54.872Z,3.95
2023-04-29T07:11:27.062Z,2.90
2023-04-29T07:13:54.773Z,2.87
2023-04-29T07:16:22.340Z,4.00
2023-04-29T07:18:49.873Z,2.95
2023-04-29T07:21:17.574Z,3.58
2023-04-29T07:23:45.097Z,4.47
2023-04-29T07:26:16.530Z,3.95
2023-04-29T07:28:45.068Z,4.07
2023-04-29T07:31:14.844Z,2.30
2023-04-29T07:33:42.333Z,3.08
2023-04-29T07:36:11.918Z,3.20
2023-04-29T07:38:40.218Z,2.72
2023-04-29T07:41:07.625Z,3.83
2023-04-29T07:43:35.372Z,3.62
2023-04-29T07:46:02.791Z,4.28
2023-04-29T07:48:30.240Z,2.90
2023-04-29T07:50:57.907Z,3.42
2023-04-29T07:53:25.315Z,3.30
2023-04-29T07:55:52.865Z,2.90
2023-04-29T07:58:20.909Z,4.10
2023-04-29T08:00:48.618Z,3.65
2023-04-29T08:03:16.574Z,5.18
2023-04-29T08:05:45.342Z,3.22
2023-04-29T08:08:15.394Z,2.65
2023-04-29T08:10:44.294Z,2.78
2023-04-29T08:13:11.737Z,2.92
2023-04-29T08:15:40.213Z,3.17
2023-04-29T08:18:08.000Z,2.55
2023-04-29T08:20:35.724Z,2.53
2023-04-29T08:23:03.100Z,3.25
2023-04-29T08:25:30.902Z,5.15
2023-04-29T08:27:58.287Z,2.85
2023-04-29T08:30:25.689Z,3.15
2023-04-29T08:32:53.427Z,4.65
2023-04-29T08:35:20.942Z,3.22
2023-04-29T08:37:48.579Z,3.45
2023-04-29T08:40:16.369Z,3.35
2023-04-29T08:42:46.833Z,3.58
2023-04-29T08:45:19.617Z,2.97
2023-04-29T08:47:47.732Z,2.90
2023-04-29T08:50:15.306Z,2.65
2023-04-29T08:52:43.063Z,2.55
2023-04-29T08:55:10.534Z,2.60
2023-04-29T08:57:39.852Z,2.40
2023-04-29T09:00:08.921Z,3.35
2023-04-29T09:02:43.702Z,3.72
2023-04-29T09:05:12.795Z,3.12
2023-04-29T09:07:42.035Z,3.22
2023-04-29T09:10:10.041Z,3.28
2023-04-29T09:12:37.690Z,3.05
2023-04-29T09:15:05.594Z,3.95
2023-04-29T09:17:46.172Z,4.50
2023-04-29T09:20:20.070Z,3.15
2023-04-29T09:22:58.767Z,2.00
2023-04-29T09:25:27.306Z,2.90
2023-04-29T09:27:55.699Z,3.35
2023-04-29T09:30:23.497Z,3.00
2023-04-29T09:33:08.761Z,3.05
2023-04-29T09:35:36.395Z,3.22
2023-04-29T09:38:14.617Z,3.12
2023-04-29T09:40:50.716Z,2.87
2023-04-29T09:43:26.254Z,2.65
2023-04-29T09:45:53.873Z,4.15
2023-04-29T09:48:21.337Z,3.25
2023-04-29T09:51:01.631Z,3.67
2023-04-29T09:53:30.474Z,3.33
2023-04-29T09:56:02.572Z,2.72
2023-04-29T09:58:34.112Z,2.78
2023-04-29T10:01:03.022Z,3.30
2023-04-29T10:03:33.734Z,2.80
2023-04-29T10:06:02.672Z,3.25
2023-04-29T10:08:30.989Z,2.85
2023-04-29T10:11:05.957Z,3.30
2023-04-29T10:13:35.222Z,3.20
2023-04-29T10:16:21.366Z,3.72
2023-04-29T10:19:00.564Z,2.85
2023-04-29T10:21:32.263Z,2.97
2023-04-29T10:24:02.314Z,3.40
2023-04-29T10:26:32.011Z,2.28
2023-04-29T10:29:00.334Z,2.72
2023-04-29T10:31:28.083Z,3.28
2023-04-29T10:33:57.936Z,4.30
2023-04-29T10:36:26.258Z,2.30
2023-04-29T10:38:55.439Z,3.15
2023-04-29T10:41:26.969Z,3.15
2023-04-29T10:43:55.263Z,2.33
2023-04-29T10:46:26.445Z,2.55
2023-04-29T10:49:04.088Z,2.22
2023-04-29T10:51:33.896Z,2.85
2023-04-29T10:54:04.395Z,3.33
2023-04-29T10:56:44.827Z,3.37
2023-04-29T10:59:14.387Z,2.90
2023-04-29T11:01:46.961Z,3.03
2023-04-29T11:04:15.695Z,2.90
2023-04-29T11:06:47.454Z,3.28
2023-04-29T11:09:19.655Z,3.17
2023-04-29T11:11:54.467Z,4.12
2023-04-29T11:14:27.560Z,2.92
2023-04-29T11:17:01.452Z,3.92
2023-04-29T11:19:34.558Z,3.35
2023-04-29T11:22:28.583Z,3.78
2023-04-29T11:24:57.879Z,4.35
2023-04-29T11:27:36.357Z,3.05
2023-04-29T11:30:05.471Z,3.85
2023-04-29T11:32:36.848Z,3.87
2023-04-29T11:35:12.940Z,3.17
2023-04-29T11:37:42.007Z,3.53
2023-04-29T11:40:10.047Z,3.62
2023-04-29T11:42:48.198Z,3.92
2023-04-29T11:45:18.769Z,2.80
2023-04-29T11:47:47.888Z,2.75
2023-04-29T11:50:19.210Z,2.97
2023-04-29T11:52:47.761Z,3.10
2023-04-29T11:55:15.475Z,3.70
2023-04-29T11:57:43.762Z,3.83
2023-04-29T12:00:14.603Z,2.60
2023-04-29T12:02:47.733Z,3.10
2023-04-29T12:05:17.253Z,3.00
2023-04-29T12:07:45.574Z,3.47
2023-04-29T12:10:13.061Z,3.45
2023-04-29T12:12:47.399Z,3.28
2023-04-29T12:15:15.284Z,2.67
2023-04-29T12:17:42.847Z,4.25
2023-04-29T12:20:11.095Z,3.35
2023-04-29T12:22:39.068Z,2.85
2023-04-29T12:25:08.058Z,3.33
2023-04-29T12:27:36.216Z,3.12
2023-04-29T12:30:08.258Z,3.33
2023-04-29T12:32:36.962Z,3.85
2023-04-29T12:35:05.012Z,3.70
2023-04-29T12:37:33.917Z,3.50
2023-04-29T12:40:01.490Z,3.33
2023-04-29T12:42:34.998Z,3.70
2023-04-29T12:45:02.658Z,2.37
2023-04-29T12:47:37.638Z,3.78
2023-04-29T12:50:07.246Z,2.85
2023-04-29T12:52:36.752Z,2.75
2023-04-29T12:55:05.105Z,3.45
2023-04-29T12:57:32.570Z,2.75
2023-04-29T13:00:00.370Z,3.45
2023-04-29T13:02:28.531Z,2.75
2023-04-29T13:04:56.481Z,4.03
2023-04-29T13:07:24.451Z,3.28
2023-04-29T13:09:51.851Z,3.08
2023-04-29T13:12:19.275Z,2.70
2023-04-29T13:14:46.970Z,4.05
2023-04-29T13:17:14.880Z,3.53
2023-04-29T13:19:51.144Z,3.08
2023-04-29T13:22:19.920Z,3.37
2023-04-29T13:24:47.786Z,3.40
2023-04-29T13:27:15.243Z,3.25
2023-04-29T13:29:42.896Z,4.00
2023-04-29T13:32:10.548Z,2.30
2023-04-29T13:34:38.075Z,3.05
2023-04-29T13:37:06.151Z,2.37
2023-04-29T13:39:38.114Z,3.30
2023-04-29T13:42:06.630Z,3.12
2023-04-29T13:44:47.502Z,3.53
2023-04-29T13:47:25.612Z,3.05
2023-04-29T13:50:23.847Z,2.72
2023-04-29T13:55:39.494Z,2.72
2023-04-29T13:58:43.504Z,3.37
2023-04-29T14:01:17.163Z,3.78
2023-04-29T14:03:35.989Z,3.37
2023-04-29T14:06:03.875Z,3.62
2023-04-29T14:08:31.264Z,3.03
2023-04-29T14:10:59.116Z,2.97
2023-04-29T14:13:26.640Z,3.47
2023-04-29T14:15:54.611Z,3.40
2023-04-29T14:18:22.425Z,2.75
2023-04-29T14:20:49.865Z,2.85
2023-04-29T14:23:17.272Z,3.05
2023-04-29T14:25:45.049Z,3.62
2023-04-29T14:28:12.700Z,2.78
2023-04-29T14:30:41.111Z,2.97
2023-04-29T14:33:09.154Z,3.15
2023-04-29T14:35:36.596Z,4.15
2023-04-29T14:38:03.995Z,3.60
2023-04-29T14:40:31.772Z,3.12
2023-04-29T14:42:59.164Z,3.28
2023-04-29T14:45:26.569Z,3.58
2023-04-29T14:47:54.233Z,3.47
2023-04-29T14:50:23.271Z,3.03
2023-04-29T14:52:50.946Z,2.33
2023-04-29T14:55:18.666Z,3.03
2023-04-29T14:57:46.315Z,2.05
2023-04-29T15:00:15.079Z,2.87
2023-04-29T15:02:43.056Z,2.70
2023-04-29T15:05:10.557Z,3.00
2023-04-29T15:07:37.994Z,2.92
2023-04-29T15:10:07.858Z,3.83
2023-04-29T15:12:35.287Z,3.50
2023-04-29T15:15:02.709Z,2.85
2023-04-29T15:17:30.689Z,2.58
2023-04-29T15:19:58.136Z,2.55
2023-04-29T15:22:25.574Z,2.95
2023-04-29T15:24:53.336Z,3.80
2023-04-29T15:27:21.513Z,3.30
2023-04-29T15:29:48.956Z,3.55
2023-04-29T15:32:17.200Z,4.00
2023-04-29T15:34:44.644Z,3.58
2023-04-29T15:37:12.264Z,2.47
2023-04-29T15:39:39.983Z,2.85
2023-04-29T15:42:07.532Z,2.90
2023-04-29T15:44:34.907Z,3.42
2023-04-29T15:47:02.640Z,3.87
2023-04-29T15:49:31.073Z,2.55
2023-04-29T15:51:58.486Z,3.58
2023-04-29T15:54:26.194Z,3.25
2023-04-29T15:56:55.591Z,3.35
2023-04-29T15:59:23.057Z,2.90
2023-04-29T16:01:50.857Z,2.37
2023-04-29T16:04:18.660Z,2.92
2023-04-29T16:06:46.182Z,2.80
2023-04-29T16:09:14.032Z,2.62
2023-04-29T16:11:42.080Z,1.85
2023-04-29T16:14:09.543Z,2.78
2023-04-29T16:16:37.099Z,3.28
2023-04-29T16:19:04.819Z,3.22
2023-04-29T16:21:32.922Z,4.15
2023-04-29T16:24:00.325Z,3.20
2023-04-29T16:26:28.268Z,2.90
2023-04-29T16:28:55.933Z,2.97
2023-04-29T16:31:23.648Z,3.42
2023-04-29T16:33:51.365Z,2.65
2023-04-29T16:36:18.984Z,2.95
2023-04-29T16:38:46.498Z,2.50
2023-04-29T16:41:14.160Z,2.58
2023-04-29T16:43:41.552Z,2.95
2023-04-29T16:46:09.932Z,3.03
2023-04-29T16:48:37.715Z,2.87
2023-04-29T16:51:05.170Z,3.42
2023-04-29T16:53:32.586Z,3.05
2023-04-29T16:56:00.478Z,3.20
2023-04-29T16:58:28.979Z,3.30
2023-04-29T17:00:56.573Z,2.78
2023-04-29T17:03:24.372Z,3.25
2023-04-29T17:05:51.896Z,2.62
2023-04-29T17:08:19.390Z,3.12
2023-04-29T17:10:47.127Z,3.42
2023-04-29T17:13:14.744Z,2.87
2023-04-29T17:15:42.243Z,2.92
2023-04-29T17:18:09.980Z,2.45
2023-04-29T17:20:37.471Z,3.62
2023-04-29T17:23:05.634Z,3.53
2023-04-29T17:25:33.568Z,3.65
2023-04-29T17:28:01.110Z,2.90
2023-04-29T17:30:28.607Z,2.65
2023-04-29T17:32:56.471Z,2.30
2023-04-29T17:35:23.999Z,3.95
2023-04-29T17:37:51.418Z,2.83
2023-04-29T17:40:19.412Z,3.33
2023-04-29T17:42:46.846Z,2.78
2023-04-29T17:45:14.365Z,3.33
2023-04-29T17:47:42.149Z,3.25
2023-04-29T17:50:09.634Z,3.35
2023-04-29T17:52:37.203Z,2.50
2023-04-29T17:55:05.498Z,3.33
2023-04-29T17:57:33.059Z,3.42
2023-04-29T18:00:00.926Z,3.12
2023-04-29T18:02:28.640Z,2.85
2023-04-29T18:04:56.442Z,3.42
2023-04-29T18:07:24.063Z,3.45
2023-04-29T18:09:51.718Z,4.95
2023-04-29T18:12:19.824Z,4.22
2023-04-29T18:14:48.819Z,5.15
2023-04-29T18:17:16.380Z,4.93
2023-04-29T18:19:46.851Z,5.55
2023-04-29T18:22:14.427Z,4.10
2023-04-29T18:24:41.873Z,4.95
2023-04-29T18:27:09.622Z,4.55
2023-04-29T18:29:37.059Z,4.30
2023-04-29T18:32:07.242Z,5.03
2023-04-29T18:34:36.167Z,4.97
2023-04-29T18:37:03.598Z,5.00
2023-04-29T18:39:31.015Z,5.50
2023-04-29T18:41:59.080Z,5.00
2023-04-29T18:44:27.987Z,4.68
2023-04-29T18:46:55.697Z,5.35
2023-04-29T18:49:23.382Z,5.45
2023-04-29T18:51:51.072Z,4.80
2023-04-29T18:54:18.806Z,4.85
2023-04-29T18:56:48.358Z,3.47
2023-04-29T18:59:19.314Z,5.95
2023-04-29T19:01:48.356Z,4.90
2023-04-29T19:04:16.678Z,7.97
2023-04-29T19:06:44.600Z,6.05
2023-04-29T19:09:13.589Z,4.70
2023-04-29T19:11:41.193Z,6.32
2023-04-29T19:14:08.630Z,5.75
2023-04-29T19:16:37.371Z,8.68
2023-04-29T19:19:05.168Z,6.35
2023-04-29T19:21:35.892Z,7.53
2023-04-29T19:24:03.788Z,8.50
2023-04-29T19:26:32.991Z,7.20
2023-04-29T19:29:02.801Z,7.28
2023-04-29T19:31:30.609Z,6.75
2023-04-29T19:33:58.071Z,7.03
2023-04-29T19:36:26.248Z,6.18
2023-04-29T19:38:54.092Z,5.32
2023-04-29T19:41:21.640Z,5.20
2023-04-29T19:43:49.322Z,5.47
2023-04-29T19:46:17.104Z,5.43
2023-04-29T19:48:44.586Z,5.45
2023-04-29T19:51:12.256Z,4.30
2023-04-29T19:53:40.833Z,5.80
2023-04-29T19:56:08.406Z,5.45
2023-04-29T19:58:36.028Z,5.90
2023-04-29T20:01:04.045Z,6.30
2023-04-29T20:03:32.814Z,4.80
2023-04-29T20:06:00.306Z,4.43
2023-04-29T20:08:27.802Z,5.05
2023-04-29T20:10:55.584Z,5.10
2023-04-29T20:13:23.003Z,5.35
2023-04-29T20:15:50.854Z,5.57
2023-04-29T20:18:18.568Z,5.20
2023-04-29T20:20:45.983Z,5.50
2023-04-29T20:23:13.647Z,5.07
2023-04-29T20:25:41.439Z,5.93
2023-04-29T20:28:09.400Z,5.80
2023-04-29T20:30:36.818Z,4.85
2023-04-29T20:33:05.328Z,9.77
2023-04-29T20:35:33.983Z,5.62
2023-04-29T20:38:01.470Z,6.50
2023-04-29T20:40:29.236Z,6.47
2023-04-29T20:42:57.297Z,5.45
2023-04-29T20:45:24.979Z,4.03
2023-04-29T20:47:53.042Z,4.80
2023-04-29T20:50:20.830Z,5.07
2023-04-29T20:52:49.460Z,5.00
2023-04-29T20:55:17.306Z,4.28
2023-04-29T20:57:44.727Z,5.15
2023-04-29T21:00:12.626Z,4.97
2023-04-29T21:02:40.337Z,4.35
2023-04-29T21:05:09.942Z,4.15
2023-04-29T21:07:37.661Z,3.65
2023-04-29T21:10:05.732Z,4.40
2023-04-29T21:12:33.305Z,3.97
2023-04-29T21:15:00.766Z,3.58
2023-04-29T21:17:28.738Z,4.68
2023-04-29T21:19:56.691Z,4.40
2023-04-29T21:22:24.560Z,5.00
2023-04-29T21:24:52.410Z,5.30
2023-04-29T21:27:19.796Z,5.55
2023-04-29T21:29:47.206Z,3.87
2023-04-29T21:32:18.255Z,3.83
2023-04-29T21:34:45.679Z,3.67
2023-04-29T21:37:13.283Z,4.18
2023-04-29T21:39:40.991Z,3.92
2023-04-29T21:42:08.972Z,3.60
2023-04-29T21:44:37.901Z,4.45
2023-04-29T21:47:06.866Z,3.75
2023-04-29T21:49:34.560Z,3.67
2023-04-29T21:52:02.064Z,3.22
2023-04-29T21:54:29.768Z,3.70
2023-04-29T21:56:58.030Z,3.67
2023-04-29T21:59:25.477Z,3.53
2023-04-29T22:02:00.340Z,2.30
2023-04-29T22:04:28.287Z,4.30
2023-04-29T22:06:56.920Z,4.10
2023-04-29T22:09:24.461Z,3.62
2023-04-29T22:11:52.201Z,3.55
2023-04-29T22:14:19.579Z,3.45
2023-04-29T22:16:47.161Z,3.50
2023-04-29T22:19:14.878Z,4.10
2023-04-29T22:21:43.285Z,4.47
2023-04-29T22:24:11.011Z,5.10
2023-04-29T22:26:38.661Z,4.25
2023-04-29T22:29:06.485Z,4.22
2023-04-29T22:31:33.988Z,3.40
2023-04-29T22:34:01.703Z,4.15
2023-04-29T22:36:29.233Z,4.87
2023-04-29T22:38:56.616Z,3.97
2023-04-29T22:41:24.393Z,3.05
2023-04-29T22:43:57.047Z,3.22
2023-04-29T22:46:25.541Z,3.22
2023-04-29T22:48:53.087Z,4.22
2023-04-29T22:51:20.703Z,5.25
2023-04-29T22:53:48.560Z,3.47
2023-04-29T22:56:15.964Z,3.92
2023-04-29T22:58:43.378Z,3.20
2023-04-29T23:01:12.192Z,4.05
2023-04-29T23:03:39.783Z,3.55
2023-04-29T23:06:07.339Z,3.20
2023-04-29T23:08:35.088Z,4.05
2023-04-29T23:11:02.536Z,2.85
2023-04-29T23:13:29.953Z,3.62
2023-04-29T23:15:59.459Z,3.97
2023-04-29T23:18:26.924Z,3.70
2023-04-29T23:20:55.483Z,2.92
2023-04-29T23:23:23.322Z,3.80
2023-04-29T23:25:50.807Z,3.47
2023-04-29T23:28:18.267Z,3.37
2023-04-29T23:30:49.092Z,3.53
2023-04-29T23:33:16.637Z,3.15
2023-04-29T23:35:53.627Z,3.75
2023-04-29T23:38:21.467Z,4.03
2023-04-29T23:40:49.369Z,3.70
2023-04-29T23:43:16.823Z,3.58
2023-04-29T23:45:45.855Z,4.03
2023-04-29T23:48:13.622Z,4.62
2023-04-29T23:50:41.015Z,3.35
2023-04-29T23:53:08.726Z,4.25
2023-04-29T23:55:36.219Z,3.78
2023-04-29T23:58:04.123Z,4.55
